sensor_id;sensor_type;location;lat;lon;timestamp;P1;durP1;ratioP1;P2;durP2;ratioP2
22429;SDS011;11382;48.086;11.632;2024-02-04T00:01:45;4.80;;;3.28;;
22429;SDS011;11382;48.086;11.632;2024-02-04T00:04:15;5.47;;;3.60;;
22429;SDS011;11382;48.086;11.632;2024-02-04T00:06:43;5.70;;;3.85;;
22429;SDS011;11382;48.086;11.632;2024-02-04T00:09:12;5.82;;;3.78;;
22429;SDS011;11382;48.086;11.632;2024-02-04T00:11:40;5.90;;;4.03;;
22429;SDS011;11382;48.086;11.632;2024-02-04T00:14:08;4.53;;;3.60;;
22429;SDS011;11382;48.086;11.632;2024-02-04T00:16:36;5.38;;;3.50;;
22429;SDS011;11382;48.086;11.632;2024-02-04T00:19:04;4.60;;;3.58;;
22429;SDS011;11382;48.086;11.632;2024-02-04T00:21:34;4.70;;;3.42;;
22429;SDS011;11382;48.086;11.632;2024-02-04T00:24:02;6.18;;;4.03;;
22429;SDS011;11382;48.086;11.632;2024-02-04T00:26:31;5.18;;;3.92;;
22429;SDS011;11382;48.086;11.632;2024-02-04T00:28:59;6.18;;;3.63;;
22429;SDS011;11382;48.086;11.632;2024-02-04T00:31:27;5.93;;;4.38;;
22429;SDS011;11382;48.086;11.632;2024-02-04T00:33:56;5.40;;;3.65;;
22429;SDS011;11382;48.086;11.632;2024-02-04T00:36:24;4.95;;;3.97;;
22429;SDS011;11382;48.086;11.632;2024-02-04T00:38:54;7.05;;;4.25;;
22429;SDS011;11382;48.086;11.632;2024-02-04T00:41:22;5.78;;;4.00;;
22429;SDS011;11382;48.086;11.632;2024-02-04T00:43:50;5.95;;;4.50;;
22429;SDS011;11382;48.086;11.632;2024-02-04T00:46:18;6.80;;;4.53;;
22429;SDS011;11382;48.086;11.632;2024-02-04T00:48:47;5.93;;;4.57;;
22429;SDS011;11382;48.086;11.632;2024-02-04T00:51:15;6.25;;;4.45;;
22429;SDS011;11382;48.086;11.632;2024-02-04T00:53:44;7.10;;;4.57;;
22429;SDS011;11382;48.086;11.632;2024-02-04T00:56:13;8.10;;;5.20;;
22429;SDS011;11382;48.086;11.632;2024-02-04T00:58:41;8.25;;;5.18;;
22429;SDS011;11382;48.086;11.632;2024-02-04T01:01:09;6.05;;;4.32;;
22429;SDS011;11382;48.086;11.632;2024-02-04T01:03:37;6.75;;;5.00;;
22429;SDS011;11382;48.086;11.632;2024-02-04T01:06:06;7.70;;;5.10;;
22429;SDS011;11382;48.086;11.632;2024-02-04T01:08:34;6.72;;;4.88;;
22429;SDS011;11382;48.086;11.632;2024-02-04T01:11:04;7.32;;;5.28;;
22429;SDS011;11382;48.086;11.632;2024-02-04T01:13:34;5.93;;;4.93;;
22429;SDS011;11382;48.086;11.632;2024-02-04T01:16:02;7.55;;;5.30;;
22429;SDS011;11382;48.086;11.632;2024-02-04T01:18:30;8.23;;;6.00;;
22429;SDS011;11382;48.086;11.632;2024-02-04T01:20:59;5.88;;;4.78;;
22429;SDS011;11382;48.086;11.632;2024-02-04T01:23:27;7.55;;;5.43;;
22429;SDS011;11382;48.086;11.632;2024-02-04T01:25:55;7.93;;;5.55;;
22429;SDS011;11382;48.086;11.632;2024-02-04T01:28:24;7.03;;;5.13;;
22429;SDS011;11382;48.086;11.632;2024-02-04T01:30:53;6.90;;;4.93;;
22429;SDS011;11382;48.086;11.632;2024-02-04T01:33:21;6.88;;;4.97;;
22429;SDS011;11382;48.086;11.632;2024-02-04T01:35:50;8.10;;;4.78;;
22429;SDS011;11382;48.086;11.632;2024-02-04T01:38:20;8.63;;;5.78;;
22429;SDS011;11382;48.086;11.632;2024-02-04T01:40:48;7.07;;;5.13;;
22429;SDS011;11382;48.086;11.632;2024-02-04T01:43:18;9.35;;;5.97;;
22429;SDS011;11382;48.086;11.632;2024-02-04T01:45:47;7.07;;;5.30;;
22429;SDS011;11382;48.086;11.632;2024-02-04T01:48:19;9.68;;;5.55;;
22429;SDS011;11382;48.086;11.632;2024-02-04T01:50:49;7.60;;;5.55;;
22429;SDS011;11382;48.086;11.632;2024-02-04T01:53:19;9.65;;;5.95;;
22429;SDS011;11382;48.086;11.632;2024-02-04T01:55:49;8.60;;;5.30;;
22429;SDS011;11382;48.086;11.632;2024-02-04T01:58:17;6.88;;;5.13;;
22429;SDS011;11382;48.086;11.632;2024-02-04T02:00:45;7.68;;;5.40;;
22429;SDS011;11382;48.086;11.632;2024-02-04T02:03:15;7.65;;;5.70;;
22429;SDS011;11382;48.086;11.632;2024-02-04T02:05:45;8.18;;;5.95;;
22429;SDS011;11382;48.086;11.632;2024-02-04T02:08:14;9.13;;;5.80;;
22429;SDS011;11382;48.086;11.632;2024-02-04T02:10:42;10.68;;;5.43;;
22429;SDS011;11382;48.086;11.632;2024-02-04T02:13:14;7.47;;;5.57;;
22429;SDS011;11382;48.086;11.632;2024-02-04T02:15:49;7.93;;;5.68;;
22429;SDS011;11382;48.086;11.632;2024-02-04T02:18:23;7.57;;;5.45;;
22429;SDS011;11382;48.086;11.632;2024-02-04T02:21:07;8.90;;;5.53;;
22429;SDS011;11382;48.086;11.632;2024-02-04T02:23:48;7.55;;;5.18;;
22429;SDS011;11382;48.086;11.632;2024-02-04T02:26:22;7.70;;;4.68;;
22429;SDS011;11382;48.086;11.632;2024-02-04T02:28:50;8.98;;;5.50;;
22429;SDS011;11382;48.086;11.632;2024-02-04T02:31:18;8.05;;;5.03;;
22429;SDS011;11382;48.086;11.632;2024-02-04T02:33:56;7.05;;;4.60;;
22429;SDS011;11382;48.086;11.632;2024-02-04T02:36:25;7.13;;;4.55;;
22429;SDS011;11382;48.086;11.632;2024-02-04T02:39:02;7.13;;;5.07;;
22429;SDS011;11382;48.086;11.632;2024-02-04T02:41:40;8.45;;;5.68;;
22429;SDS011;11382;48.086;11.632;2024-02-04T02:44:10;6.68;;;3.80;;
22429;SDS011;11382;48.086;11.632;2024-02-04T02:46:41;7.63;;;5.25;;
22429;SDS011;11382;48.086;11.632;2024-02-04T02:49:11;7.03;;;5.30;;
22429;SDS011;11382;48.086;11.632;2024-02-04T02:51:39;9.45;;;5.05;;
22429;SDS011;11382;48.086;11.632;2024-02-04T02:54:07;7.53;;;5.20;;
22429;SDS011;11382;48.086;11.632;2024-02-04T02:56:36;6.95;;;5.18;;
22429;SDS011;11382;48.086;11.632;2024-02-04T02:59:05;7.25;;;4.82;;
22429;SDS011;11382;48.086;11.632;2024-02-04T03:01:34;7.28;;;5.10;;
22429;SDS011;11382;48.086;11.632;2024-02-04T03:04:06;8.90;;;4.88;;
22429;SDS011;11382;48.086;11.632;2024-02-04T03:06:34;8.18;;;5.28;;
22429;SDS011;11382;48.086;11.632;2024-02-04T03:09:02;7.13;;;4.90;;
22429;SDS011;11382;48.086;11.632;2024-02-04T03:11:32;8.23;;;5.22;;
22429;SDS011;11382;48.086;11.632;2024-02-04T03:14:02;7.97;;;4.95;;
22429;SDS011;11382;48.086;11.632;2024-02-04T03:16:32;7.68;;;5.25;;
22429;SDS011;11382;48.086;11.632;2024-02-04T03:19:04;7.85;;;5.03;;
22429;SDS011;11382;48.086;11.632;2024-02-04T03:21:32;6.28;;;4.72;;
22429;SDS011;11382;48.086;11.632;2024-02-04T03:24:00;7.93;;;4.75;;
22429;SDS011;11382;48.086;11.632;2024-02-04T03:26:28;6.32;;;5.00;;
22429;SDS011;11382;48.086;11.632;2024-02-04T03:28:57;8.02;;;4.97;;
22429;SDS011;11382;48.086;11.632;2024-02-04T03:31:25;6.75;;;4.93;;
22429;SDS011;11382;48.086;11.632;2024-02-04T03:33:55;6.63;;;4.72;;
22429;SDS011;11382;48.086;11.632;2024-02-04T03:36:25;5.80;;;4.35;;
22429;SDS011;11382;48.086;11.632;2024-02-04T03:38:53;9.43;;;4.93;;
22429;SDS011;11382;48.086;11.632;2024-02-04T03:41:21;6.20;;;4.93;;
22429;SDS011;11382;48.086;11.632;2024-02-04T03:43:49;5.95;;;4.57;;
22429;SDS011;11382;48.086;11.632;2024-02-04T03:46:17;6.93;;;4.65;;
22429;SDS011;11382;48.086;11.632;2024-02-04T03:48:45;6.28;;;4.50;;
22429;SDS011;11382;48.086;11.632;2024-02-04T03:51:18;6.35;;;4.15;;
22429;SDS011;11382;48.086;11.632;2024-02-04T03:53:49;5.63;;;3.65;;
22429;SDS011;11382;48.086;11.632;2024-02-04T03:56:17;5.00;;;3.53;;
22429;SDS011;11382;48.086;11.632;2024-02-04T03:58:47;5.53;;;3.65;;
22429;SDS011;11382;48.086;11.632;2024-02-04T04:01:15;5.88;;;4.43;;
22429;SDS011;11382;48.086;11.632;2024-02-04T04:03:44;6.13;;;4.20;;
22429;SDS011;11382;48.086;11.632;2024-02-04T04:06:12;5.75;;;3.67;;
22429;SDS011;11382;48.086;11.632;2024-02-04T04:08:41;4.68;;;3.15;;
22429;SDS011;11382;48.086;11.632;2024-02-04T04:11:10;4.40;;;3.42;;
22429;SDS011;11382;48.086;11.632;2024-02-04T04:13:38;5.78;;;3.50;;
22429;SDS011;11382;48.086;11.632;2024-02-04T04:16:06;5.45;;;3.35;;
22429;SDS011;11382;48.086;11.632;2024-02-04T04:18:37;5.10;;;3.08;;
22429;SDS011;11382;48.086;11.632;2024-02-04T04:21:05;5.57;;;2.92;;
22429;SDS011;11382;48.086;11.632;2024-02-04T04:23:34;3.00;;;2.70;;
22429;SDS011;11382;48.086;11.632;2024-02-04T04:26:03;5.95;;;3.75;;
22429;SDS011;11382;48.086;11.632;2024-02-04T04:28:32;6.63;;;3.80;;
22429;SDS011;11382;48.086;11.632;2024-02-04T04:31:00;4.80;;;3.25;;
22429;SDS011;11382;48.086;11.632;2024-02-04T04:33:29;4.45;;;3.38;;
22429;SDS011;11382;48.086;11.632;2024-02-04T04:35:57;5.68;;;3.25;;
22429;SDS011;11382;48.086;11.632;2024-02-04T04:38:25;4.93;;;3.53;;
22429;SDS011;11382;48.086;11.632;2024-02-04T04:40:53;5.80;;;3.40;;
22429;SDS011;11382;48.086;11.632;2024-02-04T04:43:23;5.28;;;3.13;;
22429;SDS011;11382;48.086;11.632;2024-02-04T04:45:53;4.90;;;3.40;;
22429;SDS011;11382;48.086;11.632;2024-02-04T04:48:21;4.22;;;3.42;;
22429;SDS011;11382;48.086;11.632;2024-02-04T04:50:49;4.07;;;3.10;;
22429;SDS011;11382;48.086;11.632;2024-02-04T04:53:17;3.88;;;2.70;;
22429;SDS011;11382;48.086;11.632;2024-02-04T04:55:45;4.72;;;3.20;;
22429;SDS011;11382;48.086;11.632;2024-02-04T04:58:13;4.47;;;2.67;;
22429;SDS011;11382;48.086;11.632;2024-02-04T05:00:42;3.30;;;2.63;;
22429;SDS011;11382;48.086;11.632;2024-02-04T05:03:11;4.93;;;2.80;;
22429;SDS011;11382;48.086;11.632;2024-02-04T05:05:39;3.10;;;2.30;;
22429;SDS011;11382;48.086;11.632;2024-02-04T05:08:07;3.10;;;2.20;;
22429;SDS011;11382;48.086;11.632;2024-02-04T05:10:35;3.80;;;2.53;;
22429;SDS011;11382;48.086;11.632;2024-02-04T05:13:03;4.75;;;2.47;;
22429;SDS011;11382;48.086;11.632;2024-02-04T05:15:31;4.63;;;2.78;;
22429;SDS011;11382;48.086;11.632;2024-02-04T05:18:02;4.78;;;2.47;;
22429;SDS011;11382;48.086;11.632;2024-02-04T05:20:31;3.17;;;2.15;;
22429;SDS011;11382;48.086;11.632;2024-02-04T05:22:59;4.15;;;2.45;;
22429;SDS011;11382;48.086;11.632;2024-02-04T05:25:27;5.22;;;2.63;;
22429;SDS011;11382;48.086;11.632;2024-02-04T05:27:55;5.50;;;2.30;;
22429;SDS011;11382;48.086;11.632;2024-02-04T05:30:23;5.55;;;2.25;;
22429;SDS011;11382;48.086;11.632;2024-02-04T05:32:51;2.88;;;1.90;;
22429;SDS011;11382;48.086;11.632;2024-02-04T05:35:20;3.45;;;2.15;;
22429;SDS011;11382;48.086;11.632;2024-02-04T05:37:48;3.58;;;2.10;;
22429;SDS011;11382;48.086;11.632;2024-02-04T05:40:16;3.70;;;2.40;;
22429;SDS011;11382;48.086;11.632;2024-02-04T05:42:47;5.80;;;2.70;;
22429;SDS011;11382;48.086;11.632;2024-02-04T05:45:15;5.95;;;2.70;;
22429;SDS011;11382;48.086;11.632;2024-02-04T05:47:43;5.30;;;3.15;;
22429;SDS011;11382;48.086;11.632;2024-02-04T05:50:12;4.85;;;2.72;;
22429;SDS011;11382;48.086;11.632;2024-02-04T05:52:41;5.13;;;2.97;;
22429;SDS011;11382;48.086;11.632;2024-02-04T05:55:10;4.43;;;2.60;;
22429;SDS011;11382;48.086;11.632;2024-02-04T05:57:38;5.00;;;2.85;;
22429;SDS011;11382;48.086;11.632;2024-02-04T06:00:06;4.75;;;3.55;;
22429;SDS011;11382;48.086;11.632;2024-02-04T06:02:36;5.13;;;3.00;;
22429;SDS011;11382;48.086;11.632;2024-02-04T06:05:04;9.93;;;3.42;;
22429;SDS011;11382;48.086;11.632;2024-02-04T06:07:32;7.07;;;3.20;;
22429;SDS011;11382;48.086;11.632;2024-02-04T06:10:02;4.05;;;2.65;;
22429;SDS011;11382;48.086;11.632;2024-02-04T06:12:30;7.45;;;3.92;;
22429;SDS011;11382;48.086;11.632;2024-02-04T06:15:01;4.60;;;3.00;;
22429;SDS011;11382;48.086;11.632;2024-02-04T06:17:41;3.55;;;2.65;;
22429;SDS011;11382;48.086;11.632;2024-02-04T06:20:17;5.03;;;3.05;;
22429;SDS011;11382;48.086;11.632;2024-02-04T06:23:06;4.55;;;3.08;;
22429;SDS011;11382;48.086;11.632;2024-02-04T06:25:36;4.07;;;2.22;;
22429;SDS011;11382;48.086;11.632;2024-02-04T06:28:04;8.18;;;3.08;;
22429;SDS011;11382;48.086;11.632;2024-02-04T06:30:33;5.72;;;2.90;;
22429;SDS011;11382;48.086;11.632;2024-02-04T06:33:01;4.57;;;3.10;;
22429;SDS011;11382;48.086;11.632;2024-02-04T06:35:30;4.85;;;2.95;;
22429;SDS011;11382;48.086;11.632;2024-02-04T06:37:58;3.55;;;2.70;;
22429;SDS011;11382;48.086;11.632;2024-02-04T06:40:27;5.97;;;3.60;;
22429;SDS011;11382;48.086;11.632;2024-02-04T06:42:56;4.55;;;2.60;;
22429;SDS011;11382;48.086;11.632;2024-02-04T06:45:24;4.85;;;3.10;;
22429;SDS011;11382;48.086;11.632;2024-02-04T06:47:54;7.13;;;3.13;;
22429;SDS011;11382;48.086;11.632;2024-02-04T06:50:22;9.68;;;3.20;;
22429;SDS011;11382;48.086;11.632;2024-02-04T06:52:50;4.63;;;3.28;;
22429;SDS011;11382;48.086;11.632;2024-02-04T06:55:18;5.70;;;3.30;;
22429;SDS011;11382;48.086;11.632;2024-02-04T06:57:46;5.55;;;3.60;;
22429;SDS011;11382;48.086;11.632;2024-02-04T07:00:15;7.35;;;3.80;;
22429;SDS011;11382;48.086;11.632;2024-02-04T07:02:43;8.02;;;3.22;;
22429;SDS011;11382;48.086;11.632;2024-02-04T07:05:11;6.47;;;3.45;;
22429;SDS011;11382;48.086;11.632;2024-02-04T07:07:41;8.60;;;3.58;;
22429;SDS011;11382;48.086;11.632;2024-02-04T07:10:10;7.45;;;3.75;;
22429;SDS011;11382;48.086;11.632;2024-02-04T07:12:38;6.90;;;3.55;;
22429;SDS011;11382;48.086;11.632;2024-02-04T07:15:06;16.92;;;4.15;;
22429;SDS011;11382;48.086;11.632;2024-02-04T07:17:36;7.40;;;3.83;;
22429;SDS011;11382;48.086;11.632;2024-02-04T07:20:05;7.00;;;4.10;;
22429;SDS011;11382;48.086;11.632;2024-02-04T07:22:34;7.38;;;3.75;;
22429;SDS011;11382;48.086;11.632;2024-02-04T07:25:03;10.70;;;4.18;;
22429;SDS011;11382;48.086;11.632;2024-02-04T07:27:32;8.52;;;3.97;;
22429;SDS011;11382;48.086;11.632;2024-02-04T07:30:00;6.22;;;4.22;;
22429;SDS011;11382;48.086;11.632;2024-02-04T07:32:29;11.57;;;4.80;;
22429;SDS011;11382;48.086;11.632;2024-02-04T07:34:59;8.20;;;4.65;;
22429;SDS011;11382;48.086;11.632;2024-02-04T07:37:27;13.57;;;4.90;;
22429;SDS011;11382;48.086;11.632;2024-02-04T07:39:55;9.70;;;4.78;;
22429;SDS011;11382;48.086;11.632;2024-02-04T07:42:23;13.60;;;4.50;;
22429;SDS011;11382;48.086;11.632;2024-02-04T07:44:51;10.88;;;5.03;;
22429;SDS011;11382;48.086;11.632;2024-02-04T07:47:19;9.25;;;5.20;;
22429;SDS011;11382;48.086;11.632;2024-02-04T07:49:48;12.60;;;5.25;;
22429;SDS011;11382;48.086;11.632;2024-02-04T07:52:17;9.80;;;5.30;;
22429;SDS011;11382;48.086;11.632;2024-02-04T07:54:45;9.88;;;5.32;;
22429;SDS011;11382;48.086;11.632;2024-02-04T07:57:13;12.38;;;5.30;;
22429;SDS011;11382;48.086;11.632;2024-02-04T07:59:41;11.93;;;5.80;;
22429;SDS011;11382;48.086;11.632;2024-02-04T08:02:09;10.82;;;5.47;;
22429;SDS011;11382;48.086;11.632;2024-02-04T08:04:39;14.07;;;5.35;;
22429;SDS011;11382;48.086;11.632;2024-02-04T08:07:08;9.80;;;5.45;;
22429;SDS011;11382;48.086;11.632;2024-02-04T08:09:37;11.70;;;5.32;;
22429;SDS011;11382;48.086;11.632;2024-02-04T08:12:06;9.25;;;4.65;;
22429;SDS011;11382;48.086;11.632;2024-02-04T08:14:34;6.68;;;4.78;;
22429;SDS011;11382;48.086;11.632;2024-02-04T08:17:02;8.88;;;4.28;;
22429;SDS011;11382;48.086;11.632;2024-02-04T08:19:30;11.05;;;4.57;;
22429;SDS011;11382;48.086;11.632;2024-02-04T08:21:59;10.13;;;4.60;;
22429;SDS011;11382;48.086;11.632;2024-02-04T08:24:27;11.38;;;4.57;;
22429;SDS011;11382;48.086;11.632;2024-02-04T08:26:59;10.88;;;4.72;;
22429;SDS011;11382;48.086;11.632;2024-02-04T08:29:27;11.38;;;4.78;;
22429;SDS011;11382;48.086;11.632;2024-02-04T08:31:55;9.43;;;4.57;;
22429;SDS011;11382;48.086;11.632;2024-02-04T08:34:23;6.78;;;3.67;;
22429;SDS011;11382;48.086;11.632;2024-02-04T08:36:52;6.22;;;4.05;;
22429;SDS011;11382;48.086;11.632;2024-02-04T08:39:20;10.30;;;4.03;;
22429;SDS011;11382;48.086;11.632;2024-02-04T08:41:49;10.70;;;4.00;;
22429;SDS011;11382;48.086;11.632;2024-02-04T08:44:18;11.27;;;4.10;;
22429;SDS011;11382;48.086;11.632;2024-02-04T08:47:01;9.70;;;3.78;;
22429;SDS011;11382;48.086;11.632;2024-02-04T08:49:29;8.60;;;4.20;;
22429;SDS011;11382;48.086;11.632;2024-02-04T08:52:00;7.22;;;3.20;;
22429;SDS011;11382;48.086;11.632;2024-02-04T08:54:29;10.90;;;3.83;;
22429;SDS011;11382;48.086;11.632;2024-02-04T08:56:57;9.45;;;3.95;;
22429;SDS011;11382;48.086;11.632;2024-02-04T08:59:26;8.35;;;3.78;;
22429;SDS011;11382;48.086;11.632;2024-02-04T09:01:54;9.82;;;3.78;;
22429;SDS011;11382;48.086;11.632;2024-02-04T09:04:22;6.38;;;4.00;;
22429;SDS011;11382;48.086;11.632;2024-02-04T09:06:50;8.18;;;4.07;;
22429;SDS011;11382;48.086;11.632;2024-02-04T09:09:18;5.95;;;3.30;;
22429;SDS011;11382;48.086;11.632;2024-02-04T09:11:46;8.85;;;3.35;;
22429;SDS011;11382;48.086;11.632;2024-02-04T09:14:14;10.63;;;3.63;;
22429;SDS011;11382;48.086;11.632;2024-02-04T09:16:44;7.07;;;3.67;;
22429;SDS011;11382;48.086;11.632;2024-02-04T09:19:12;8.27;;;3.78;;
22429;SDS011;11382;48.086;11.632;2024-02-04T09:21:40;8.43;;;4.00;;
22429;SDS011;11382;48.086;11.632;2024-02-04T09:24:09;7.40;;;4.00;;
22429;SDS011;11382;48.086;11.632;2024-02-04T09:26:37;10.88;;;3.90;;
22429;SDS011;11382;48.086;11.632;2024-02-04T09:29:05;6.80;;;4.20;;
22429;SDS011;11382;48.086;11.632;2024-02-04T09:31:33;7.10;;;3.95;;
22429;SDS011;11382;48.086;11.632;2024-02-04T09:34:03;11.50;;;4.50;;
22429;SDS011;11382;48.086;11.632;2024-02-04T09:36:31;10.05;;;4.38;;
22429;SDS011;11382;48.086;11.632;2024-02-04T09:39:00;10.25;;;4.18;;
22429;SDS011;11382;48.086;11.632;2024-02-04T09:41:28;8.25;;;4.10;;
22429;SDS011;11382;48.086;11.632;2024-02-04T09:43:56;10.52;;;3.95;;
22429;SDS011;11382;48.086;11.632;2024-02-04T09:46:25;7.80;;;4.10;;
22429;SDS011;11382;48.086;11.632;2024-02-04T09:48:54;11.02;;;4.97;;
22429;SDS011;11382;48.086;11.632;2024-02-04T09:51:29;8.57;;;4.35;;
22429;SDS011;11382;48.086;11.632;2024-02-04T09:53:58;10.20;;;3.60;;
22429;SDS011;11382;48.086;11.632;2024-02-04T09:56:32;10.95;;;4.72;;
22429;SDS011;11382;48.086;11.632;2024-02-04T09:59:03;9.18;;;4.35;;
22429;SDS011;11382;48.086;11.632;2024-02-04T10:01:32;9.52;;;4.35;;
22429;SDS011;11382;48.086;11.632;2024-02-04T10:04:00;8.55;;;4.18;;
22429;SDS011;11382;48.086;11.632;2024-02-04T10:06:30;11.95;;;4.10;;
22429;SDS011;11382;48.086;11.632;2024-02-04T10:08:59;9.80;;;4.60;;
22429;SDS011;11382;48.086;11.632;2024-02-04T10:11:27;8.63;;;4.20;;
22429;SDS011;11382;48.086;11.632;2024-02-04T10:13:55;9.23;;;3.88;;
22429;SDS011;11382;48.086;11.632;2024-02-04T10:16:23;10.45;;;4.43;;
22429;SDS011;11382;48.086;11.632;2024-02-04T10:18:52;10.68;;;4.35;;
22429;SDS011;11382;48.086;11.632;2024-02-04T10:21:23;11.25;;;4.68;;
22429;SDS011;11382;48.086;11.632;2024-02-04T10:23:53;6.38;;;3.78;;
22429;SDS011;11382;48.086;11.632;2024-02-04T10:26:22;7.03;;;3.63;;
22429;SDS011;11382;48.086;11.632;2024-02-04T10:28:51;6.10;;;3.85;;
22429;SDS011;11382;48.086;11.632;2024-02-04T10:31:19;7.30;;;3.85;;
22429;SDS011;11382;48.086;11.632;2024-02-04T10:33:47;5.63;;;3.40;;
22429;SDS011;11382;48.086;11.632;2024-02-04T10:36:17;8.05;;;3.78;;
22429;SDS011;11382;48.086;11.632;2024-02-04T10:38:45;6.68;;;3.50;;
22429;SDS011;11382;48.086;11.632;2024-02-04T10:41:15;6.40;;;3.47;;
22429;SDS011;11382;48.086;11.632;2024-02-04T10:43:44;5.60;;;3.22;;
22429;SDS011;11382;48.086;11.632;2024-02-04T10:46:13;5.25;;;2.97;;
22429;SDS011;11382;48.086;11.632;2024-02-04T10:48:45;6.05;;;3.30;;
22429;SDS011;11382;48.086;11.632;2024-02-04T10:51:19;4.88;;;3.08;;
22429;SDS011;11382;48.086;11.632;2024-02-04T10:53:53;5.70;;;2.83;;
22429;SDS011;11382;48.086;11.632;2024-02-04T10:56:30;5.45;;;3.15;;
22429;SDS011;11382;48.086;11.632;2024-02-04T10:59:02;4.50;;;2.70;;
22429;SDS011;11382;48.086;11.632;2024-02-04T11:01:31;4.50;;;2.30;;
22429;SDS011;11382;48.086;11.632;2024-02-04T11:03:59;6.32;;;2.13;;
22429;SDS011;11382;48.086;11.632;2024-02-04T11:06:28;2.95;;;2.10;;
22429;SDS011;11382;48.086;11.632;2024-02-04T11:08:57;3.67;;;1.90;;
22429;SDS011;11382;48.086;11.632;2024-02-04T11:11:28;4.50;;;2.10;;
22429;SDS011;11382;48.086;11.632;2024-02-04T11:13:58;3.92;;;2.20;;
22429;SDS011;11382;48.086;11.632;2024-02-04T11:16:49;4.85;;;2.28;;
22429;SDS011;11382;48.086;11.632;2024-02-04T11:19:35;6.22;;;2.22;;
22429;SDS011;11382;48.086;11.632;2024-02-04T11:22:23;5.57;;;2.25;;
22429;SDS011;11382;48.086;11.632;2024-02-04T11:25:09;4.18;;;1.83;;
22429;SDS011;11382;48.086;11.632;2024-02-04T11:27:50;3.78;;;1.83;;
22429;SDS011;11382;48.086;11.632;2024-02-04T11:30:19;5.35;;;1.92;;
22429;SDS011;11382;48.086;11.632;2024-02-04T11:32:48;3.92;;;2.05;;
22429;SDS011;11382;48.086;11.632;2024-02-04T11:35:17;3.03;;;1.83;;
22429;SDS011;11382;48.086;11.632;2024-02-04T11:37:49;5.18;;;1.80;;
22429;SDS011;11382;48.086;11.632;2024-02-04T11:40:18;5.35;;;1.90;;
22429;SDS011;11382;48.086;11.632;2024-02-04T11:42:51;3.17;;;1.58;;
22429;SDS011;11382;48.086;11.632;2024-02-04T11:45:29;3.95;;;1.35;;
22429;SDS011;11382;48.086;11.632;2024-02-04T11:48:01;2.08;;;1.30;;
22429;SDS011;11382;48.086;11.632;2024-02-04T11:50:32;2.80;;;1.38;;
22429;SDS011;11382;48.086;11.632;2024-02-04T11:53:07;6.45;;;1.52;;
22429;SDS011;11382;48.086;11.632;2024-02-04T11:55:38;1.63;;;1.00;;
22429;SDS011;11382;48.086;11.632;2024-02-04T11:58:12;4.15;;;1.10;;
22429;SDS011;11382;48.086;11.632;2024-02-04T12:00:42;2.25;;;1.10;;
22429;SDS011;11382;48.086;11.632;2024-02-04T12:03:11;2.85;;;1.23;;
22429;SDS011;11382;48.086;11.632;2024-02-04T12:05:39;2.67;;;1.35;;
22429;SDS011;11382;48.086;11.632;2024-02-04T12:08:08;2.40;;;1.63;;
22429;SDS011;11382;48.086;11.632;2024-02-04T12:10:36;3.38;;;1.23;;
22429;SDS011;11382;48.086;11.632;2024-02-04T12:13:05;3.13;;;1.30;;
22429;SDS011;11382;48.086;11.632;2024-02-04T12:15:36;3.20;;;1.52;;
22429;SDS011;11382;48.086;11.632;2024-02-04T12:18:07;2.13;;;1.35;;
22429;SDS011;11382;48.086;11.632;2024-02-04T12:20:36;3.08;;;1.48;;
22429;SDS011;11382;48.086;11.632;2024-02-04T12:23:05;4.57;;;1.60;;
22429;SDS011;11382;48.086;11.632;2024-02-04T12:25:35;4.53;;;1.60;;
22429;SDS011;11382;48.086;11.632;2024-02-04T12:28:07;3.53;;;1.30;;
22429;SDS011;11382;48.086;11.632;2024-02-04T12:30:37;3.22;;;1.50;;
22429;SDS011;11382;48.086;11.632;2024-02-04T12:33:05;3.08;;;1.00;;
22429;SDS011;11382;48.086;11.632;2024-02-04T12:35:35;2.72;;;1.15;;
22429;SDS011;11382;48.086;11.632;2024-02-04T12:38:03;2.88;;;1.20;;
22429;SDS011;11382;48.086;11.632;2024-02-04T12:40:33;3.25;;;1.50;;
22429;SDS011;11382;48.086;11.632;2024-02-04T12:43:01;4.75;;;1.25;;
22429;SDS011;11382;48.086;11.632;2024-02-04T12:45:32;2.00;;;1.20;;
22429;SDS011;11382;48.086;11.632;2024-02-04T12:48:02;3.58;;;1.08;;
22429;SDS011;11382;48.086;11.632;2024-02-04T12:50:31;3.53;;;1.67;;
22429;SDS011;11382;48.086;11.632;2024-02-04T12:53:03;4.00;;;1.58;;
22429;SDS011;11382;48.086;11.632;2024-02-04T12:55:32;3.58;;;1.55;;
22429;SDS011;11382;48.086;11.632;2024-02-04T12:58:01;3.75;;;1.42;;
22429;SDS011;11382;48.086;11.632;2024-02-04T13:00:31;4.72;;;2.53;;
22429;SDS011;11382;48.086;11.632;2024-02-04T13:03:02;3.65;;;1.65;;
22429;SDS011;11382;48.086;11.632;2024-02-04T13:05:31;4.65;;;1.92;;
22429;SDS011;11382;48.086;11.632;2024-02-04T13:07:59;5.95;;;1.33;;
22429;SDS011;11382;48.086;11.632;2024-02-04T13:10:29;3.88;;;1.40;;
22429;SDS011;11382;48.086;11.632;2024-02-04T13:13:00;4.60;;;1.35;;
22429;SDS011;11382;48.086;11.632;2024-02-04T13:15:30;3.03;;;1.13;;
22429;SDS011;11382;48.086;11.632;2024-02-04T13:17:58;4.32;;;1.00;;
22429;SDS011;11382;48.086;11.632;2024-02-04T13:20:28;2.00;;;1.20;;
22429;SDS011;11382;48.086;11.632;2024-02-04T13:22:57;3.88;;;1.30;;
22429;SDS011;11382;48.086;11.632;2024-02-04T13:25:27;4.10;;;1.40;;
22429;SDS011;11382;48.086;11.632;2024-02-04T13:27:55;4.00;;;1.35;;
22429;SDS011;11382;48.086;11.632;2024-02-04T13:30:23;2.92;;;1.40;;
22429;SDS011;11382;48.086;11.632;2024-02-04T13:32:52;5.70;;;1.65;;
22429;SDS011;11382;48.086;11.632;2024-02-04T13:35:20;3.15;;;1.30;;
22429;SDS011;11382;48.086;11.632;2024-02-04T13:37:49;5.85;;;2.08;;
22429;SDS011;11382;48.086;11.632;2024-02-04T13:40:19;5.03;;;1.10;;
22429;SDS011;11382;48.086;11.632;2024-02-04T13:42:46;6.22;;;2.03;;
22429;SDS011;11382;48.086;11.632;2024-02-04T13:45:15;6.20;;;1.95;;
22429;SDS011;11382;48.086;11.632;2024-02-04T13:47:43;6.80;;;2.10;;
22429;SDS011;11382;48.086;11.632;2024-02-04T13:50:11;6.40;;;1.55;;
22429;SDS011;11382;48.086;11.632;2024-02-04T13:52:40;6.82;;;1.63;;
22429;SDS011;11382;48.086;11.632;2024-02-04T13:55:09;4.50;;;1.60;;
22429;SDS011;11382;48.086;11.632;2024-02-04T13:57:37;5.60;;;1.48;;
22429;SDS011;11382;48.086;11.632;2024-02-04T14:00:06;3.75;;;1.95;;
22429;SDS011;11382;48.086;11.632;2024-02-04T14:02:35;6.20;;;1.77;;
22429;SDS011;11382;48.086;11.632;2024-02-04T14:05:05;5.03;;;2.00;;
22429;SDS011;11382;48.086;11.632;2024-02-04T14:07:34;4.22;;;1.50;;
22429;SDS011;11382;48.086;11.632;2024-02-04T14:10:02;3.03;;;1.52;;
22429;SDS011;11382;48.086;11.632;2024-02-04T14:12:32;3.35;;;1.40;;
22429;SDS011;11382;48.086;11.632;2024-02-04T14:15:00;5.85;;;1.65;;
22429;SDS011;11382;48.086;11.632;2024-02-04T14:17:28;4.35;;;1.77;;
22429;SDS011;11382;48.086;11.632;2024-02-04T14:19:56;2.85;;;1.35;;
22429;SDS011;11382;48.086;11.632;2024-02-04T14:22:25;3.97;;;1.77;;
22429;SDS011;11382;48.086;11.632;2024-02-04T14:24:54;2.78;;;1.27;;
22429;SDS011;11382;48.086;11.632;2024-02-04T14:27:22;3.10;;;1.25;;
22429;SDS011;11382;48.086;11.632;2024-02-04T14:29:52;4.13;;;1.10;;
22429;SDS011;11382;48.086;11.632;2024-02-04T14:32:20;2.63;;;1.23;;
22429;SDS011;11382;48.086;11.632;2024-02-04T14:34:49;2.63;;;1.10;;
22429;SDS011;11382;48.086;11.632;2024-02-04T14:37:20;5.60;;;1.27;;
22429;SDS011;11382;48.086;11.632;2024-02-04T14:39:48;1.70;;;0.90;;
22429;SDS011;11382;48.086;11.632;2024-02-04T14:42:16;4.53;;;1.00;;
22429;SDS011;11382;48.086;11.632;2024-02-04T14:44:45;3.47;;;1.00;;
22429;SDS011;11382;48.086;11.632;2024-02-04T14:47:15;5.00;;;1.10;;